Time;durP1;ratioP1;P1;durP2;ratioP2;P2;SDS_P1;SDS_P2;PMS_P1;PMS_P2;Temp;Humidity;BMP_temperature;BMP_pressure;BME280_temperature;BME280_humidity;BME280_pressure;Samples;Min_cycle;Max_cycle;Signal;HPM_P1;HPM_P2
2023/12/18 00:01:30;;;;;;;26.42;24.08;;;;;;;-1.40;75.84;96786.97;5078091;28;20244;-73
2023/12/18 00:04:02;;;;;;;25.75;23.23;;;;;;;-1.37;75.36;96782.97;5095286;28;20205;-73
2023/12/18 00:06:31;;;;;;;25.30;22.80;;;;;;;-1.38;75.06;96782.16;5077033;28;20286;-73
2023/12/18 00:08:58;;;;;;;24.95;22.58;;;;;;;-1.37;74.70;96791.09;5098476;28;20185;-73
2023/12/18 00:11:25;;;;;;;24.55;22.27;;;;;;;-1.36;74.68;96781.91;5098065;28;20200;-73
2023/12/18 00:13:52;;;;;;;23.77;21.58;;;;;;;-1.36;74.62;96781.91;5099091;28;20201;-73
2023/12/18 00:16:19;;;;;;;23.63;21.33;;;;;;;-1.34;74.54;96763.56;5096706;28;20315;-73
2023/12/18 00:18:47;;;;;;;23.92;21.63;;;;;;;-1.37;74.57;96770.25;5080956;28;20301;-73
2023/12/18 00:21:15;;;;;;;23.58;21.40;;;;;;;-1.35;74.76;96770.00;5098931;28;20216;-73
2023/12/18 00:23:43;;;;;;;22.70;20.70;;;;;;;-1.34;74.93;96760.84;5098585;28;20287;-73
2023/12/18 00:26:10;;;;;;;23.25;20.98;;;;;;;-1.33;74.76;96757.91;5098583;28;20214;-73
2023/12/18 00:28:38;;;;;;;21.70;19.80;;;;;;;-1.31;74.75;96757.66;5081623;28;20265;-73
2023/12/18 00:31:05;;;;;;;21.77;19.88;;;;;;;-1.34;74.75;96748.13;5097232;28;20192;-73
2023/12/18 00:33:31;;;;;;;22.73;20.67;;;;;;;-1.41;75.14;96742.03;5098269;28;20199;-73
2023/12/18 00:35:59;;;;;;;22.90;20.70;;;;;;;-1.46;74.98;96745.41;5098519;28;20238;-73
2023/12/18 00:38:26;;;;;;;19.63;17.83;;;;;;;-1.47;75.13;96757.31;5098103;28;20180;-73
2023/12/18 00:40:54;;;;;;;17.67;16.23;;;;;;;-1.45;74.78;96751.69;5081084;28;20196;-73
2023/12/18 00:43:21;;;;;;;17.80;16.30;;;;;;;-1.43;75.20;96751.44;5098179;28;20216;-74
2023/12/18 00:45:48;;;;;;;17.15;15.55;;;;;;;-1.43;74.78;96741.41;5097558;28;20231;-74
2023/12/18 00:48:15;;;;;;;16.08;14.68;;;;;;;-1.35;74.60;96738.34;5081039;28;20197;-74
2023/12/18 00:50:43;;;;;;;16.60;15.13;;;;;;;-1.28;74.48;96744.47;5097746;28;20196;-74
2023/12/18 00:53:10;;;;;;;16.13;14.73;;;;;;;-1.28;74.13;96747.16;5098295;28;20193;-74
2023/12/18 00:55:37;;;;;;;19.65;17.95;;;;;;;-1.33;73.97;96749.78;5096872;28;20188;-74
2023/12/18 00:58:06;;;;;;;20.40;18.52;;;;;;;-1.49;73.81;96748.63;5097887;28;20228;-74
2023/12/18 01:00:33;;;;;;;20.92;19.00;;;;;;;-1.60;74.30;96741.28;5079910;28;20193;-74
2023/12/18 01:03:00;;;;;;;19.83;18.13;;;;;;;-1.64;74.77;96733.88;5079970;28;20223;-74
2023/12/18 01:05:27;;;;;;;20.73;18.83;;;;;;;-1.63;75.54;96727.44;5079848;28;20220;-74
2023/12/18 01:07:54;;;;;;;21.65;19.65;;;;;;;-1.59;75.40;96720.50;5079899;28;20188;-74
2023/12/18 01:10:21;;;;;;;21.80;19.85;;;;;;;-1.59;75.25;96717.78;5097173;28;20257;-74
2023/12/18 01:12:48;;;;;;;21.95;19.95;;;;;;;-1.62;75.17;96712.84;5096824;28;20233;-73
2023/12/18 01:15:17;;;;;;;22.42;20.42;;;;;;;-1.63;75.56;96719.31;5097656;28;20236;-73
2023/12/18 01:17:47;;;;;;;25.63;23.33;;;;;;;-1.70;75.62;96709.44;5096773;28;20246;-73
2023/12/18 01:20:14;;;;;;;27.63;24.98;;;;;;;-1.73;75.83;96723.44;5078876;28;20607;-73
2023/12/18 01:22:41;;;;;;;28.10;25.50;;;;;;;-1.71;75.85;96712.34;5096184;28;20671;-73
2023/12/18 01:25:10;;;;;;;32.55;29.45;;;;;;;-1.67;76.16;96707.28;5079734;28;20200;-73
2023/12/18 01:27:36;;;;;;;30.45;27.63;;;;;;;-1.67;76.10;96705.44;5080406;28;20261;-73
2023/12/18 01:30:05;;;;;;;30.20;27.33;;;;;;;-1.69;76.09;96699.44;5079310;28;20253;-73
2023/12/18 01:32:33;;;;;;;32.97;29.88;;;;;;;-1.71;76.12;96707.78;5096662;28;20579;-73
2023/12/18 01:35:01;;;;;;;34.20;30.80;;;;;;;-1.75;75.73;96690.34;5079434;28;20232;-73
2023/12/18 01:37:28;;;;;;;32.78;29.65;;;;;;;-1.73;76.04;96695.56;5097188;28;20232;-72
2023/12/18 01:39:57;;;;;;;31.13;28.23;;;;;;;-1.73;76.31;96687.44;5097177;28;20258;-71
2023/12/18 01:42:24;;;;;;;33.55;30.10;;;;;;;-1.73;76.29;96685.56;5079986;28;20594;-71
2023/12/18 01:44:51;;;;;;;34.05;30.77;;;;;;;-1.71;76.60;96679.88;5096761;28;20211;-71
2023/12/18 01:47:18;;;;;;;33.80;30.58;;;;;;;-1.67;76.86;96672.97;5079705;28;20192;-71
2023/12/18 01:49:50;;;;;;;33.33;30.02;;;;;;;-1.69;76.61;96669.66;5079647;28;20214;-72
2023/12/18 01:52:17;;;;;;;31.40;28.25;;;;;;;-1.72;76.56;96673.66;5079021;28;20207;-72
2023/12/18 01:54:45;;;;;;;31.92;28.83;;;;;;;-1.71;76.46;96669.06;5097466;28;20200;-72
2023/12/18 01:57:13;;;;;;;31.48;28.38;;;;;;;-1.67;76.96;96669.41;5096305;28;20583;-71
2023/12/18 01:59:40;;;;;;;29.83;27.02;;;;;;;-1.65;76.66;96670.84;5097539;28;20258;-71
2023/12/18 02:02:07;;;;;;;27.45;24.73;;;;;;;-1.71;76.93;96678.03;5080062;28;20235;-71
2023/12/18 02:04:34;;;;;;;25.35;22.85;;;;;;;-1.77;76.62;96687.09;5079272;28;20530;-71
2023/12/18 02:07:04;;;;;;;26.27;23.90;;;;;;;-1.88;76.49;96677.09;5096941;28;20200;-71
2023/12/18 02:09:31;;;;;;;26.75;24.35;;;;;;;-1.88;76.63;96671.69;5096379;28;20246;-71
2023/12/18 02:11:58;;;;;;;26.02;23.52;;;;;;;-1.85;77.07;96675.78;5097022;28;20261;-73
2023/12/18 02:14:25;;;;;;;29.35;26.48;;;;;;;-1.81;77.39;96672.38;5076326;28;20262;-73
2023/12/18 02:16:52;;;;;;;31.27;28.33;;;;;;;-1.73;77.00;96674.72;5096498;28;20279;-73
2023/12/18 02:19:24;;;;;;;25.98;23.58;;;;;;;-1.66;77.14;96669.19;5078691;28;20192;-73
2023/12/18 02:21:51;;;;;;;24.65;22.33;;;;;;;-1.64;76.84;96675.19;5078510;28;20207;-73
2023/12/18 02:24:22;;;;;;;25.25;22.85;;;;;;;-1.61;76.65;96665.78;5095481;28;20208;-73
2023/12/18 02:26:49;;;;;;;22.95;20.73;;;;;;;-1.61;76.78;96674.72;5096091;28;20215;-73
2023/12/18 02:29:17;;;;;;;21.30;19.40;;;;;;;-1.61;76.12;96669.31;5096529;28;20254;-73
2023/12/18 02:31:44;;;;;;;22.55;20.45;;;;;;;-1.59;76.43;96663.66;5095028;28;20238;-72
2023/12/18 02:34:11;;;;;;;24.33;22.23;;;;;;;-1.59;76.06;96663.66;5096735;28;20189;-72
2023/12/18 02:36:38;;;;;;;24.88;22.60;;;;;;;-1.62;76.05;96664.97;5096076;28;20220;-72
2023/12/18 02:39:05;;;;;;;24.00;21.80;;;;;;;-1.64;76.32;96669.78;5096345;28;20254;-72
2023/12/18 02:41:34;;;;;;;23.70;21.58;;;;;;;-1.62;76.34;96659.56;5095934;28;20200;-72
2023/12/18 02:44:01;;;;;;;22.30;20.20;;;;;;;-1.61;75.50;96665.78;5095613;28;20295;-72
2023/12/18 02:46:28;;;;;;;22.55;20.45;;;;;;;-1.59;75.92;96664.50;5095918;28;20176;-72
2023/12/18 02:48:55;;;;;;;22.95;20.85;;;;;;;-1.61;75.52;96668.47;5095870;28;20220;-72
2023/12/18 02:51:26;;;;;;;23.55;21.40;;;;;;;-1.62;75.74;96669.56;5095762;28;20329;-72
2023/12/18 02:53:53;;;;;;;25.80;23.52;;;;;;;-1.65;75.72;96665.44;5095785;28;20265;-72
2023/12/18 02:56:20;;;;;;;24.48;22.27;;;;;;;-1.66;75.75;96669.19;5094881;28;20200;-72
2023/12/18 02:58:49;;;;;;;23.45;21.35;;;;;;;-1.65;75.83;96675.44;5077687;28;20245;-72
2023/12/18 03:01:16;;;;;;;25.10;22.70;;;;;;;-1.65;76.05;96675.44;5094422;28;20228;-72
2023/12/18 03:03:44;;;;;;;23.05;21.02;;;;;;;-1.76;75.85;96674.38;5095702;28;20265;-72
2023/12/18 03:06:11;;;;;;;22.00;20.00;;;;;;;-1.81;75.68;96666.16;5095611;28;20243;-72
2023/12/18 03:08:38;;;;;;;22.02;20.02;;;;;;;-1.84;75.80;96661.22;5094952;28;20230;-72
2023/12/18 03:11:06;;;;;;;20.33;18.45;;;;;;;-1.83;75.96;96671.78;5095555;28;20218;-72
2023/12/18 03:13:33;;;;;;;19.63;17.83;;;;;;;-1.84;75.98;96677.44;5095245;28;20287;-72
2023/12/18 03:16:02;;;;;;;20.23;18.50;;;;;;;-1.86;76.08;96674.97;5094639;28;20656;-72
2023/12/18 03:18:29;;;;;;;16.45;15.00;;;;;;;-1.87;75.92;96667.09;5095446;28;20223;-72
2023/12/18 03:20:56;;;;;;;16.05;14.65;;;;;;;-1.89;75.97;96664.59;5095204;28;20200;-72
2023/12/18 03:23:23;;;;;;;17.40;15.90;;;;;;;-1.94;75.71;96665.31;5095295;28;20262;-72
2023/12/18 03:25:50;;;;;;;16.45;14.95;;;;;;;-1.92;75.78;96667.81;5077472;28;20228;-72
2023/12/18 03:28:18;;;;;;;13.65;12.45;;;;;;;-1.88;76.16;96668.16;5077390;28;20625;-72
2023/12/18 03:30:45;;;;;;;13.80;12.60;;;;;;;-1.85;75.60;96662.25;5095000;28;20564;-72
2023/12/18 03:33:14;;;;;;;13.80;12.68;;;;;;;-1.83;75.54;96665.56;5077602;28;20623;-70
2023/12/18 03:35:41;;;;;;;13.52;12.32;;;;;;;-1.83;75.74;96646.63;5077899;28;20230;-70
2023/12/18 03:38:08;;;;;;;13.93;12.73;;;;;;;-1.81;75.54;96645.34;5077524;28;20200;-70
2023/12/18 03:40:36;;;;;;;14.45;13.15;;;;;;;-1.79;75.74;96645.91;5078298;28;20234;-70
2023/12/18 03:43:07;;;;;;;14.35;13.05;;;;;;;-1.77;75.71;96641.09;5095761;28;20212;-69
2023/12/18 03:45:34;;;;;;;19.40;17.80;;;;;;;-1.76;75.85;96650.03;5081651;28;20208;-69
2023/12/18 03:48:01;;;;;;;17.42;15.93;;;;;;;-1.82;75.93;96657.19;5099458;28;20208;-69
2023/12/18 03:50:33;;;;;;;18.67;17.08;;;;;;;-1.91;75.84;96647.81;5098027;28;20203;-69
2023/12/18 03:53:00;;;;;;;19.95;18.33;;;;;;;-1.98;75.89;96647.09;5081298;28;20306;-69
2023/12/18 03:55:29;;;;;;;17.25;15.75;;;;;;;-2.07;75.59;96645.78;5081616;28;20226;-69
2023/12/18 03:57:58;;;;;;;15.75;14.35;;;;;;;-2.09;75.71;96643.34;5099165;28;20223;-69
2023/12/18 04:00:25;;;;;;;14.82;13.63;;;;;;;-2.13;75.46;96650.28;5099194;28;20203;-69
2023/12/18 04:02:56;;;;;;;14.27;13.07;;;;;;;-2.15;75.62;96648.84;5080788;28;20259;-69
2023/12/18 04:05:25;;;;;;;14.20;13.00;;;;;;;-2.13;76.12;96647.56;5081511;28;20220;-69
2023/12/18 04:07:59;;;;;;;14.45;13.25;;;;;;;-2.04;76.26;96648.84;5099187;28;20227;-70
2023/12/18 04:10:26;;;;;;;14.52;13.32;;;;;;;-1.99;76.02;96648.16;5098661;28;20593;-70
2023/12/18 04:12:53;;;;;;;15.00;13.70;;;;;;;-1.99;75.94;96659.81;5080986;28;20230;-67
2023/12/18 04:15:21;;;;;;;15.38;14.07;;;;;;;-1.99;76.09;96654.38;5095991;28;20220;-68
2023/12/18 04:17:50;;;;;;;17.15;15.68;;;;;;;-1.97;76.01;96657.66;5081387;28;20227;-68
2023/12/18 04:20:17;;;;;;;18.10;16.35;;;;;;;-1.98;75.93;96656.03;5099162;28;20259;-68
2023/12/18 04:22:44;;;;;;;17.35;15.75;;;;;;;-1.99;76.05;96667.09;5097530;28;20253;-68
2023/12/18 04:25:13;;;;;;;18.85;17.10;;;;;;;-1.97;75.96;96663.06;5097579;28;20239;-70
2023/12/18 04:27:40;;;;;;;19.08;17.27;;;;;;;-1.97;75.89;96659.56;5097816;28;20185;-70
2023/12/18 04:30:09;;;;;;;19.77;17.98;;;;;;;-1.97;75.92;96664.97;5081112;28;20232;-70
2023/12/18 04:32:36;;;;;;;20.15;18.27;;;;;;;-1.97;75.90;96656.84;5080793;28;20196;-71
2023/12/18 04:35:04;;;;;;;19.67;17.95;;;;;;;-1.97;76.23;96652.25;5080904;28;20204;-71
2023/12/18 04:37:33;;;;;;;18.42;16.83;;;;;;;-1.92;75.76;96656.13;5097869;28;20205;-71
2023/12/18 04:40:05;;;;;;;19.50;17.90;;;;;;;-1.90;76.12;96662.97;5097800;28;20290;-72
2023/12/18 04:42:38;;;;;;;18.63;16.92;;;;;;;-1.86;76.35;96655.22;5098240;28;20180;-71
2023/12/18 04:45:09;;;;;;;19.70;18.00;;;;;;;-1.85;76.22;96659.53;5097512;28;20671;-71
2023/12/18 04:47:37;;;;;;;21.77;19.95;;;;;;;-1.86;76.60;96666.03;5097982;28;20261;-71
2023/12/18 04:50:07;;;;;;;20.55;18.85;;;;;;;-1.84;76.42;96664.75;5098254;28;20189;-71
2023/12/18 04:52:34;;;;;;;19.45;17.77;;;;;;;-1.81;76.48;96658.03;5097942;28;20246;-71
2023/12/18 04:55:01;;;;;;;20.38;18.52;;;;;;;-1.82;76.53;96664.50;5097156;28;20545;-71
2023/12/18 04:57:30;;;;;;;21.40;19.40;;;;;;;-1.84;76.44;96656.63;5098291;28;20304;-71
2023/12/18 04:59:59;;;;;;;22.98;20.98;;;;;;;-1.82;76.54;96662.59;5097939;28;20218;-71
2023/12/18 05:02:26;;;;;;;25.23;22.83;;;;;;;-1.84;76.38;96658.50;5080783;28;20201;-71
2023/12/18 05:04:55;;;;;;;24.63;22.23;;;;;;;-1.88;76.01;96660.03;5097839;28;20197;-71
2023/12/18 05:07:24;;;;;;;22.02;20.13;;;;;;;-1.90;76.28;96662.97;5097898;28;20180;-71
2023/12/18 05:09:53;;;;;;;21.95;20.02;;;;;;;-1.89;75.99;96651.09;5096927;28;20212;-72
2023/12/18 05:12:21;;;;;;;22.00;20.20;;;;;;;-1.88;76.17;96657.34;5097189;28;20192;-71
2023/12/18 05:14:51;;;;;;;21.63;19.63;;;;;;;-1.85;76.09;96665.81;5097365;28;20232;-71
2023/12/18 05:17:21;;;;;;;23.80;21.70;;;;;;;-1.83;76.09;96660.16;5096915;28;20200;-72
2023/12/18 05:19:49;;;;;;;23.75;21.63;;;;;;;-1.78;75.90;96662.97;5079500;28;20223;-73
2023/12/18 05:22:16;;;;;;;28.27;25.80;;;;;;;-1.76;75.79;96661.66;5096938;28;20583;-73
2023/12/18 05:24:45;;;;;;;26.08;23.98;;;;;;;-1.76;75.98;96648.16;5080035;28;20265;-73
2023/12/18 05:27:13;;;;;;;23.30;21.40;;;;;;;-1.77;75.92;96649.22;5079596;28;20291;-73
2023/12/18 05:29:40;;;;;;;25.27;23.17;;;;;;;-1.78;75.82;96652.13;5079561;28;20204;-75
2023/12/18 05:32:14;;;;;;;24.85;22.75;;;;;;;-1.81;76.13;96652.63;5079314;28;20283;-73
2023/12/18 05:34:48;;;;;;;22.63;20.73;;;;;;;-1.77;76.41;96659.22;5096878;28;20286;-72
2023/12/18 05:37:19;;;;;;;23.92;21.83;;;;;;;-1.79;76.55;96659.44;5097041;28;20242;-73
2023/12/18 05:39:46;;;;;;;26.13;23.83;;;;;;;-1.78;76.57;96646.72;5079537;28;20278;-73
2023/12/18 05:42:14;;;;;;;27.35;25.05;;;;;;;-1.78;76.50;96653.00;5096548;28;20258;-73
2023/12/18 05:44:43;;;;;;;31.45;28.63;;;;;;;-1.80;76.10;96657.78;5080037;28;20310;-72
2023/12/18 05:47:10;;;;;;;28.42;26.02;;;;;;;-1.83;76.11;96665.56;5079274;28;20197;-72
2023/12/18 05:49:38;;;;;;;24.73;22.50;;;;;;;-1.77;76.22;96661.91;5079359;28;20225;-72
2023/12/18 05:52:07;;;;;;;28.10;25.50;;;;;;;-1.74;76.24;96661.44;5079877;28;20630;-72
2023/12/18 05:54:34;;;;;;;28.08;25.38;;;;;;;-1.72;75.92;96662.03;5096071;28;20204;-72
2023/12/18 05:57:01;;;;;;;28.60;26.08;;;;;;;-1.70;75.75;96659.91;5096297;28;20204;-72
2023/12/18 05:59:29;;;;;;;31.83;28.92;;;;;;;-1.65;75.97;96656.50;5079418;28;20218;-72
2023/12/18 06:01:56;;;;;;;28.40;25.90;;;;;;;-1.62;75.81;96667.66;5078765;28;20200;-72
2023/12/18 06:04:24;;;;;;;28.17;25.63;;;;;;;-1.57;75.81;96669.66;5079501;28;20327;-72
2023/12/18 06:06:52;;;;;;;26.80;24.50;;;;;;;-1.56;75.55;96669.44;5096650;28;20196;-72
2023/12/18 06:09:26;;;;;;;33.15;30.23;;;;;;;-1.54;75.57;96667.28;5096065;28;20249;-72
2023/12/18 06:11:54;;;;;;;28.50;26.00;;;;;;;-1.52;75.59;96665.19;5078782;28;20281;-72
2023/12/18 06:14:22;;;;;;;26.45;24.00;;;;;;;-1.47;75.79;96670.69;5076763;28;20204;-72
2023/12/18 06:16:49;;;;;;;26.63;24.27;;;;;;;-1.43;75.82;96668.34;5078771;28;20257;-72
2023/12/18 06:19:20;;;;;;;26.83;24.42;;;;;;;-1.41;75.57;96674.34;5096086;28;20254;-72
2023/12/18 06:21:48;;;;;;;26.67;24.27;;;;;;;-1.37;75.06;96670.09;5079633;28;20204;-72
2023/12/18 06:24:18;;;;;;;29.08;26.38;;;;;;;-1.36;75.12;96674.44;5078863;28;20227;-71
2023/12/18 06:26:47;;;;;;;29.02;26.33;;;;;;;-1.31;75.76;96676.44;5095591;28;20200;-73
2023/12/18 06:29:14;;;;;;;28.35;25.75;;;;;;;-1.29;75.58;96675.16;5095853;28;20188;-74
2023/12/18 06:31:41;;;;;;;27.98;25.45;;;;;;;-1.27;75.61;96661.34;5078218;28;20199;-73
2023/12/18 06:34:10;;;;;;;33.92;30.88;;;;;;;-1.26;75.93;96657.59;5078813;28;20245;-69
2023/12/18 06:36:43;;;;;;;32.85;29.95;;;;;;;-1.24;76.54;96661.69;5078673;28;20200;-73
2023/12/18 06:39:11;;;;;;;31.77;28.95;;;;;;;-1.23;75.81;96652.53;5078553;28;20529;-71
2023/12/18 06:41:38;;;;;;;34.20;31.10;;;;;;;-1.23;76.08;96651.72;5095697;28;20200;-73
2023/12/18 06:44:07;;;;;;;35.63;32.33;;;;;;;-1.23;75.93;96643.59;5095947;28;20215;-72
2023/12/18 06:46:35;;;;;;;35.63;32.33;;;;;;;-1.19;75.74;96649.34;5077901;28;20579;-75
2023/12/18 06:49:05;;;;;;;38.10;34.70;;;;;;;-1.18;75.61;96651.81;5095666;28;20189;-70
2023/12/18 06:51:32;;;;;;;40.00;36.50;;;;;;;-1.20;75.83;96643.09;5078958;28;20200;-71
2023/12/18 06:54:00;;;;;;;40.95;37.33;;;;;;;-1.21;76.13;96639.56;5078444;28;20184;-73
2023/12/18 06:56:27;;;;;;;34.78;31.77;;;;;;;-1.17;75.75;96649.91;5078840;28;20200;-72
2023/12/18 06:58:54;;;;;;;34.88;31.73;;;;;;;-1.13;75.84;96645.66;5077888;28;20246;-73
2023/12/18 07:01:25;;;;;;;36.08;32.92;;;;;;;-1.09;76.25;96652.25;5078660;28;20207;-73
2023/12/18 07:03:52;;;;;;;39.25;35.95;;;;;;;-1.03;76.00;96652.09;5078400;28;20196;-73
2023/12/18 07:06:22;;;;;;;37.80;34.25;;;;;;;-0.96;76.35;96662.81;5078652;28;20212;-73
2023/12/18 07:08:50;;;;;;;37.17;34.08;;;;;;;-0.90;76.05;96663.75;5078707;28;20200;-73
2023/12/18 07:11:17;;;;;;;47.70;43.45;;;;;;;-0.85;76.29;96670.06;5095512;28;20288;-73
2023/12/18 07:13:45;;;;;;;65.05;58.95;;;;;;;-0.77;76.40;96672.38;5095047;28;20184;-73
2023/12/18 07:16:20;;;;;;;67.32;61.28;;;;;;;-0.68;76.70;96666.59;5061576;28;20290;-73
2023/12/18 07:18:50;;;;;;;68.40;62.30;;;;;;;-0.61;76.69;96664.56;5057553;28;20275;-73
2023/12/18 07:21:21;;;;;;;71.70;65.32;;;;;;;-0.58;76.18;96661.34;5074967;28;20185;-73
2023/12/18 07:23:48;;;;;;;71.55;65.13;;;;;;;-0.53;75.79;96673.09;5058206;28;20190;-73
2023/12/18 07:26:15;;;;;;;76.07;69.38;;;;;;;-0.51;75.78;96670.16;5074170;28;20541;-73
2023/12/18 07:28:45;;;;;;;71.15;64.85;;;;;;;-0.39;76.35;96665.50;5055703;28;20690;-73
2023/12/18 07:31:14;;;;;;;48.42;44.28;;;;;;;-0.27;75.48;96670.84;5074485;28;20208;-73
2023/12/18 07:33:43;;;;;;;43.33;39.67;;;;;;;-0.11;75.52;96669.19;5057225;28;20633;-70
2023/12/18 07:36:11;;;;;;;38.55;35.17;;;;;;;0.05;75.07;96664.88;5074506;28;20197;-73
2023/12/18 07:38:38;;;;;;;32.70;29.90;;;;;;;0.17;74.68;96658.25;5074237;28;20205;-73
2023/12/18 07:41:06;;;;;;;30.30;27.70;;;;;;;0.30;73.93;96659.81;5058395;28;20208;-71
2023/12/18 07:43:33;;;;;;;30.95;28.25;;;;;;;0.40;73.86;96654.56;5058262;28;20201;-73
2023/12/18 07:46:00;;;;;;;29.17;26.58;;;;;;;0.51;73.73;96658.22;5057468;28;20291;-74
2023/12/18 07:48:29;;;;;;;30.50;27.73;;;;;;;0.60;73.34;96659.44;5057262;28;20193;-73
2023/12/18 07:50:57;;;;;;;29.52;26.92;;;;;;;0.72;72.86;96654.69;5057612;28;20213;-74
2023/12/18 07:53:25;;;;;;;29.98;27.27;;;;;;;0.85;72.72;96648.09;5074491;28;20258;-74
2023/12/18 07:55:54;;;;;;;29.35;26.73;;;;;;;1.03;72.75;96651.56;5058191;28;20204;-74
2023/12/18 07:58:21;;;;;;;38.97;35.58;;;;;;;1.13;72.36;96648.97;5057845;28;20200;-74
2023/12/18 08:00:51;;;;;;;37.53;34.33;;;;;;;1.23;71.97;96654.50;5074753;28;20262;-74
2023/12/18 08:03:19;;;;;;;50.58;46.08;;;;;;;1.31;71.91;96645.91;5057833;28;20193;-74
2023/12/18 08:05:47;;;;;;;52.15;47.42;;;;;;;1.43;71.67;96648.47;5056945;28;20687;-74
2023/12/18 08:08:14;;;;;;;46.40;42.28;;;;;;;1.55;72.00;96651.03;5074700;28;20270;-74
2023/12/18 08:10:43;;;;;;;38.55;35.10;;;;;;;1.67;71.46;96638.91;5074022;28;20617;-74
2023/12/18 08:13:10;;;;;;;33.13;30.30;;;;;;;1.76;70.74;96638.44;5057589;28;20217;-74
2023/12/18 08:15:37;;;;;;;35.08;32.08;;;;;;;1.77;70.48;96634.63;5055216;28;20237;-74
2023/12/18 08:18:05;;;;;;;28.48;26.05;;;;;;;1.89;70.06;96643.47;5057950;28;20193;-74
2023/12/18 08:20:32;;;;;;;24.42;22.30;;;;;;;1.86;69.23;96639.34;5056888;28;20197;-74
2023/12/18 08:23:01;;;;;;;23.13;21.23;;;;;;;1.90;69.03;96636.94;5074029;28;20201;-74
2023/12/18 08:25:28;;;;;;;22.55;20.55;;;;;;;1.91;69.21;96644.81;5073325;28;20270;-73
2023/12/18 08:27:58;;;;;;;21.58;19.77;;;;;;;2.01;69.54;96655.00;5073795;28;20254;-72
2023/12/18 08:30:25;;;;;;;22.45;20.58;;;;;;;2.20;69.30;96646.41;5058690;28;20200;-72
2023/12/18 08:32:53;;;;;;;21.90;20.20;;;;;;;2.33;69.38;96641.34;5077936;28;20200;-71
2023/12/18 08:35:22;;;;;;;20.08;18.38;;;;;;;2.53;69.70;96637.91;5061031;28;20219;-71
2023/12/18 08:37:51;;;;;;;21.08;19.27;;;;;;;2.72;70.12;96634.75;5076962;28;20223;-71
2023/12/18 08:40:20;;;;;;;21.65;19.85;;;;;;;2.83;68.78;96623.66;5077305;28;20213;-70
2023/12/18 08:42:50;;;;;;;22.55;20.60;;;;;;;2.96;68.63;96630.50;5061370;28;20215;-70
2023/12/18 08:45:23;;;;;;;21.50;19.60;;;;;;;3.13;68.15;96638.47;5077553;28;20315;-70
2023/12/18 08:47:51;;;;;;;20.48;18.75;;;;;;;3.25;67.07;96633.59;5060527;28;20197;-73
2023/12/18 08:50:22;;;;;;;19.83;18.00;;;;;;;3.32;67.39;96636.91;5077834;28;20201;-72
2023/12/18 08:52:53;;;;;;;20.30;18.60;;;;;;;3.45;67.31;96632.84;5077843;28;20228;-73
2023/12/18 08:55:21;;;;;;;21.27;19.48;;;;;;;3.58;66.64;96623.31;5077331;28;20196;-73
2023/12/18 08:57:51;;;;;;;19.10;17.45;;;;;;;3.71;66.65;96622.81;5077458;28;20242;-73
2023/12/18 09:00:23;;;;;;;19.95;18.25;;;;;;;3.83;66.13;96628.81;5077035;28;20221;-73
2023/12/18 09:02:52;;;;;;;19.60;16.35;;;;;;;3.92;65.51;96637.28;5060910;28;20490;-71
2023/12/18 09:05:19;;;;;;;18.80;16.95;;;;;;;3.94;64.56;96632.38;5076654;28;20216;-74
2023/12/18 09:07:49;;;;;;;21.10;18.60;;;;;;;4.07;64.31;96637.28;5059822;28;20644;-74
2023/12/18 09:10:17;;;;;;;18.63;16.48;;;;;;;4.28;64.79;96623.59;5077235;28;20212;-74
2023/12/18 09:12:47;;;;;;;21.63;16.05;;;;;;;4.41;63.96;96620.31;5059832;28;20197;-74
2023/12/18 09:15:14;;;;;;;22.02;16.48;;;;;;;4.60;63.55;96617.81;5060045;28;20530;-74
2023/12/18 09:17:45;;;;;;;18.48;16.40;;;;;;;4.77;62.63;96618.31;5059924;28;20201;-73
2023/12/18 09:20:13;;;;;;;17.33;15.70;;;;;;;4.88;62.32;96612.81;5076356;28;20207;-73
2023/12/18 09:22:42;;;;;;;17.92;16.23;;;;;;;5.01;61.91;96599.38;5059997;28;20193;-74
2023/12/18 09:25:10;;;;;;;16.38;14.68;;;;;;;5.20;61.82;96583.16;5076323;28;20587;-74
2023/12/18 09:27:41;;;;;;;17.15;15.45;;;;;;;5.55;62.13;96592.22;5060568;28;20263;-74
2023/12/18 09:30:10;;;;;;;16.35;14.65;;;;;;;5.88;61.69;96576.13;5076452;28;20197;-74
2023/12/18 09:32:37;;;;;;;17.88;16.20;;;;;;;5.91;60.51;96587.31;5059211;28;20215;-74
2023/12/18 09:35:06;;;;;;;18.27;15.93;;;;;;;5.84;61.10;96586.00;5076554;28;20197;-74
2023/12/18 09:37:35;;;;;;;17.88;16.15;;;;;;;5.85;62.58;96583.00;5059361;28;20201;-74
2023/12/18 09:40:03;;;;;;;21.60;19.50;;;;;;;5.83;61.97;96587.94;5076222;28;20234;-73
2023/12/18 09:42:33;;;;;;;21.88;20.02;;;;;;;5.82;63.24;96569.88;5059241;28;20200;-74
2023/12/18 09:45:13;;;;;;;22.80;20.70;;;;;;;5.78;61.30;96572.38;5058882;28;20207;-73
2023/12/18 09:47:42;;;;;;;23.90;21.60;;;;;;;5.86;62.03;96564.66;5059530;28;20196;-74
2023/12/18 09:50:12;;;;;;;20.63;18.63;;;;;;;5.92;62.72;96560.75;5075202;28;20223;-74
2023/12/18 09:52:43;;;;;;;22.15;20.08;;;;;;;6.01;62.42;96551.66;5076504;28;20254;-74
2023/12/18 09:55:11;;;;;;;22.30;20.33;;;;;;;6.20;63.32;96553.69;5059261;28;20262;-74
2023/12/18 09:57:40;;;;;;;20.02;18.20;;;;;;;6.21;61.65;96547.94;5059245;28;20213;-74
2023/12/18 10:00:12;;;;;;;22.08;16.85;;;;;;;6.24;62.77;96544.59;5059504;28;20209;-73
2023/12/18 10:02:40;;;;;;;16.65;14.95;;;;;;;6.22;61.36;96544.06;5076527;28;20201;-73
2023/12/18 10:05:11;;;;;;;30.77;18.08;;;;;;;6.22;61.58;96546.00;5076186;28;20229;-73
2023/12/18 10:07:41;;;;;;;18.83;15.57;;;;;;;6.26;62.22;96545.13;5075461;28;20208;-73
2023/12/18 10:10:08;;;;;;;17.90;16.05;;;;;;;6.20;61.63;96535.31;5076593;28;20254;-73
2023/12/18 10:12:38;;;;;;;16.60;14.98;;;;;;;6.13;61.53;96534.84;5058978;28;20213;-73
2023/12/18 10:15:08;;;;;;;17.80;15.90;;;;;;;5.99;61.72;96520.19;5081045;28;20251;-73
2023/12/18 10:17:37;;;;;;;16.40;14.70;;;;;;;5.84;62.57;96533.97;5078800;28;20196;-73
2023/12/18 10:20:06;;;;;;;15.40;13.80;;;;;;;5.65;62.31;96521.00;5079187;28;20258;-74
2023/12/18 10:22:36;;;;;;;13.77;12.38;;;;;;;5.47;62.46;96530.72;5096395;28;20560;-74
2023/12/18 10:25:08;;;;;;;12.80;11.50;;;;;;;5.34;62.49;96525.91;5095029;28;20564;-74
2023/12/18 10:27:39;;;;;;;10.80;9.70;;;;;;;5.22;63.03;96530.88;5078582;28;20197;-74
2023/12/18 10:30:11;;;;;;;9.70;8.80;;;;;;;5.13;63.03;96527.13;5079094;28;20273;-74
2023/12/18 10:32:39;;;;;;;11.55;10.27;;;;;;;5.12;63.85;96529.03;5078858;28;20203;-75
2023/12/18 10:35:08;;;;;;;11.23;9.95;;;;;;;5.11;63.90;96521.91;5078129;28;20196;-75
2023/12/18 10:37:36;;;;;;;17.05;12.60;;;;;;;5.10;64.40;96512.09;5078603;28;20210;-75
2023/12/18 10:40:06;;;;;;;14.07;11.82;;;;;;;5.12;64.11;96511.78;5094964;28;20226;-75
2023/12/18 10:42:36;;;;;;;14.23;11.55;;;;;;;5.14;64.61;96504.13;5095564;28;20198;-74
2023/12/18 10:45:10;;;;;;;13.73;11.50;;;;;;;5.19;64.59;96502.19;5095707;28;20188;-67
2023/12/18 10:47:39;;;;;;;13.00;11.15;;;;;;;5.24;64.29;96493.13;5096421;28;20219;-68
2023/12/18 10:50:08;;;;;;;13.13;11.82;;;;;;;5.23;64.46;96486.84;5095659;28;20225;-70
2023/12/18 10:52:38;;;;;;;12.70;11.30;;;;;;;5.25;64.42;96481.06;5077729;28;20210;-69
2023/12/18 10:55:14;;;;;;;10.50;9.50;;;;;;;5.25;63.98;96478.34;5078275;28;20214;-71
2023/12/18 10:57:43;;;;;;;11.20;9.50;;;;;;;5.24;64.88;96469.31;5095829;28;20198;-71
2023/12/18 11:00:19;;;;;;;8.80;7.90;;;;;;;5.30;66.12;96461.88;5078296;28;20234;-71
2023/12/18 11:02:46;;;;;;;9.02;8.20;;;;;;;5.33;65.75;96450.38;5077681;28;20294;-71
2023/12/18 11:05:13;;;;;;;8.98;8.07;;;;;;;5.35;65.61;96458.31;5077882;28;20211;-71
2023/12/18 11:07:44;;;;;;;8.85;8.00;;;;;;;5.38;66.20;96447.59;5078421;28;20249;-72
2023/12/18 11:10:13;;;;;;;8.70;7.88;;;;;;;5.57;66.86;96441.44;5077552;28;20207;-72
2023/12/18 11:12:41;;;;;;;8.05;7.28;;;;;;;6.01;67.06;96431.16;5078080;28;20224;-72
2023/12/18 11:15:19;;;;;;;9.52;7.78;;;;;;;6.63;64.89;96430.41;5070908;28;20260;-72
2023/12/18 11:18:09;;;;;;;8.55;7.70;;;;;;;7.34;62.94;96439.56;5057784;28;20625;-72
2023/12/18 11:20:39;;;;;;;8.13;7.32;;;;;;;8.01;61.63;96420.78;5058048;28;20209;-71
2023/12/18 11:23:06;;;;;;;8.38;7.50;;;;;;;8.84;59.49;96424.34;5058389;28;20193;-72
2023/12/18 11:25:39;;;;;;;7.55;6.65;;;;;;;9.84;56.32;96417.84;5058223;28;20204;-71
2023/12/18 11:28:09;;;;;;;8.82;6.93;;;;;;;11.47;52.35;96415.88;5058509;28;20208;-72